createdAt,value
2019-04-01T00:04:34.654Z,100514.73
2019-04-01T00:09:53.156Z,100506.04
2019-04-01T00:15:11.942Z,100508.18
2019-04-01T00:20:30.569Z,100506.47
2019-04-01T00:25:49.137Z,100499.03
2019-04-01T00:31:07.687Z,100496.73
2019-04-01T00:36:26.255Z,100493.86
2019-04-01T00:41:46.468Z,100494.47
2019-04-01T00:47:05.099Z,100496.27
2019-04-01T00:52:24.015Z,100498.89
2019-04-01T00:57:42.608Z,100496.61
2019-04-01T01:03:01.157Z,100497.38
2019-04-01T01:08:19.644Z,100491.54
2019-04-01T01:13:38.514Z,100489.13
2019-04-01T01:18:57.056Z,100489.13
2019-04-01T01:24:15.630Z,100485.83
2019-04-01T01:29:34.175Z,100474.90
2019-04-01T01:34:52.804Z,100472.59
2019-04-01T01:40:11.591Z,100462.19
2019-04-01T01:45:30.237Z,100463.10
2019-04-01T01:50:48.869Z,100465.72
2019-04-01T01:56:07.490Z,100457.42
2019-04-01T02:01:26.121Z,100454.18
2019-04-01T02:06:44.597Z,100449.45
2019-04-01T02:12:03.132Z,100444.79
2019-04-01T02:17:21.751Z,100448.50
2019-04-01T02:22:40.261Z,100444.09
2019-04-01T02:27:58.801Z,100447.70
2019-04-01T02:33:17.361Z,100439.64
2019-04-01T02:38:36.295Z,100441.31
2019-04-01T02:43:54.820Z,100434.30
2019-04-01T02:49:13.436Z,100442.26
2019-04-01T02:54:32.027Z,100436.61
2019-04-01T02:59:50.733Z,100435.98
2019-04-01T03:05:09.444Z,100435.18
2019-04-01T03:10:28.184Z,100428.74
2019-04-01T03:15:46.804Z,100431.67
2019-04-01T03:21:05.438Z,100415.12
2019-04-01T03:26:24.006Z,100417.39
2019-04-01T03:31:42.887Z,100413.34
2019-04-01T03:37:01.538Z,100418.40
2019-04-01T03:42:20.197Z,100414.05
2019-04-01T03:47:38.709Z,100411.30
2019-04-01T03:52:57.267Z,100404.47
2019-04-01T03:58:15.895Z,100402.11
2019-04-01T04:03:34.540Z,100399.53
2019-04-01T04:08:53.169Z,100403.03
2019-04-01T04:14:11.823Z,100403.61
2019-04-01T04:19:30.423Z,100398.48
2019-04-01T04:24:49.179Z,100399.98
2019-04-01T04:30:08.087Z,100395.84
2019-04-01T04:35:26.767Z,100397.30
2019-04-01T04:40:45.396Z,100389.20
2019-04-01T04:46:03.940Z,100392.33
2019-04-01T04:51:22.511Z,100385.22
2019-04-01T04:56:41.166Z,100387.60
2019-04-01T05:01:59.862Z,100378.94
2019-04-01T05:07:18.579Z,100386.91
2019-04-01T05:12:37.247Z,100393.52
2019-04-01T05:17:55.942Z,100388.12
2019-04-01T05:23:15.477Z,100386.71
2019-04-01T05:28:36.412Z,100391.89
2019-04-01T05:33:57.742Z,100386.30
2019-04-01T05:39:16.435Z,100396.07
2019-04-01T05:44:35.468Z,100394.08
2019-04-01T05:49:54.223Z,100400.16
2019-04-01T05:55:12.836Z,100399.45
2019-04-01T06:00:33.213Z,100405.48
2019-04-01T06:05:51.840Z,100407.25
2019-04-01T06:11:10.473Z,100403.76
2019-04-01T06:16:29.035Z,100407.27
2019-04-01T06:21:47.857Z,100413.84
2019-04-01T06:27:06.603Z,100418.45
2019-04-01T06:32:25.344Z,100418.20
2019-04-01T06:37:44.057Z,100414.08
2019-04-01T06:43:02.747Z,100417.20
2019-04-01T06:48:21.374Z,100408.94
2019-04-01T06:53:40.072Z,100423.96
2019-04-01T06:58:58.869Z,100420.34
2019-04-01T07:04:17.632Z,100423.78
2019-04-01T07:09:36.232Z,100420.63
2019-04-01T07:14:54.922Z,100427.63
2019-04-01T07:20:13.689Z,100425.00
2019-04-01T07:25:34.225Z,100411.91
2019-04-01T07:30:53.034Z,100418.05
2019-04-01T07:36:12.087Z,100403.63
2019-04-01T07:41:30.705Z,100409.36
2019-04-01T07:46:49.370Z,100405.02
2019-04-01T07:52:08.169Z,100413.70
2019-04-01T07:57:26.944Z,100413.78
2019-04-01T08:02:48.838Z,100406.19
2019-04-01T08:08:06.031Z,100398.86
2019-04-01T08:13:24.652Z,100392.69
2019-04-01T08:18:43.280Z,100390.56
2019-04-01T08:24:01.944Z,100390.95
2019-04-01T08:29:30.193Z,100394.37
2019-04-01T08:34:40.920Z,100392.22
2019-04-01T08:39:59.541Z,100392.67
2019-04-01T08:45:18.533Z,100380.72
2019-04-01T08:50:37.169Z,100390.33
2019-04-01T08:56:01.051Z,100389.13
2019-04-01T09:01:16.596Z,100380.16
2019-04-01T09:06:35.232Z,100362.55
2019-04-01T09:11:55.368Z,100361.75
2019-04-01T09:17:14.022Z,100358.75
2019-04-01T09:22:32.643Z,100352.30
2019-04-01T09:27:51.271Z,100350.07
2019-04-01T09:33:09.894Z,100343.62
2019-04-01T09:38:28.566Z,100345.91
2019-04-01T09:43:47.135Z,100336.95
2019-04-01T09:49:05.762Z,100330.67
2019-04-01T09:54:24.355Z,100326.50
2019-04-01T09:59:42.925Z,100323.70
2019-04-01T10:05:01.482Z,100318.22
2019-04-01T10:10:23.312Z,100314.70
2019-04-01T10:15:42.032Z,100303.33
2019-04-01T10:21:00.681Z,100301.45
2019-04-01T10:26:19.323Z,100298.29
2019-04-01T10:31:38.191Z,100285.17
2019-04-01T10:36:56.895Z,100278.11
2019-04-01T10:42:15.580Z,100272.80
2019-04-01T10:47:34.279Z,100259.07
2019-04-01T10:52:52.938Z,100250.59
2019-04-01T10:58:11.508Z,100247.92
2019-04-01T11:03:30.125Z,100242.20
2019-04-01T11:08:48.685Z,100236.56
2019-04-01T11:14:07.469Z,100223.48
2019-04-01T11:19:26.016Z,100226.64
2019-04-01T11:24:44.715Z,100222.50
2019-04-01T11:30:03.855Z,100206.42
2019-04-01T11:35:22.511Z,100200.73
2019-04-01T11:40:41.171Z,100196.10
2019-04-01T11:45:59.864Z,100191.41
2019-04-01T11:51:31.984Z,100189.95
2019-04-01T11:56:39.009Z,100180.52
2019-04-01T12:01:58.135Z,100168.91
2019-04-01T12:07:16.758Z,100170.89
2019-04-01T12:12:35.395Z,100162.15
2019-04-01T12:17:55.278Z,100167.79
2019-04-01T12:23:14.468Z,100157.98
2019-04-01T12:28:36.472Z,100145.16
2019-04-01T12:33:53.895Z,100139.23
2019-04-01T12:39:12.541Z,100136.59
2019-04-01T12:44:31.090Z,100125.09
2019-04-01T12:49:49.654Z,100123.94
2019-04-01T12:55:08.841Z,100108.84
2019-04-01T13:00:29.020Z,100098.43
2019-04-01T13:05:47.668Z,100092.31
2019-04-01T13:11:06.309Z,100079.10
2019-04-01T13:16:24.939Z,100074.55
2019-04-01T13:21:43.566Z,100064.05
2019-04-01T13:27:02.131Z,100052.10
2019-04-01T13:32:20.770Z,100051.08
2019-04-01T13:37:39.709Z,100037.46
2019-04-01T13:42:58.332Z,100036.72
2019-04-01T13:48:16.894Z,100025.59
2019-04-01T13:53:35.522Z,100014.44
2019-04-01T13:58:54.153Z,100006.97
2019-04-01T14:04:12.725Z,99992.02
2019-04-01T14:09:31.349Z,99986.72
2019-04-01T14:14:49.963Z,99978.44
2019-04-01T14:20:08.714Z,99973.88
2019-04-01T14:25:27.260Z,99968.16
2019-04-01T14:30:45.911Z,99958.11
2019-04-01T14:36:04.906Z,99961.65
2019-04-01T14:41:23.858Z,99945.73
2019-04-01T14:46:42.390Z,99945.31
2019-04-01T14:52:01.084Z,99935.78
2019-04-01T14:57:19.706Z,99918.73
2019-04-01T15:02:39.782Z,99908.89
2019-04-01T15:07:59.869Z,99906.89
2019-04-01T15:13:19.109Z,99902.37
2019-04-01T15:18:37.709Z,99890.28
2019-04-01T15:23:57.704Z,99884.53
2019-04-01T15:29:16.415Z,99868.30
2019-04-01T15:34:35.032Z,99864.74
2019-04-01T15:39:53.631Z,99856.39
2019-04-01T15:45:12.258Z,99842.86
2019-04-01T15:50:30.907Z,99846.19
2019-04-01T15:55:49.600Z,99837.41
2019-04-01T16:01:08.236Z,99828.58
2019-04-01T16:06:26.825Z,99818.72
2019-04-01T16:11:45.395Z,99814.77
2019-04-01T16:17:05.421Z,99812.66
2019-04-01T16:22:24.466Z,99801.08
2019-04-01T16:27:43.279Z,99797.58
2019-04-01T16:33:01.889Z,99801.38
2019-04-01T16:38:20.526Z,99798.85
2019-04-01T16:43:39.164Z,99793.78
2019-04-01T16:48:57.811Z,99790.75
2019-04-01T16:54:16.476Z,99796.12
2019-04-01T16:59:35.069Z,99790.81
2019-04-01T17:04:54.020Z,99790.81
2019-04-01T17:10:24.136Z,99787.41
2019-04-01T17:15:42.762Z,99792.52
2019-04-01T17:21:01.536Z,99783.05
2019-04-01T17:26:20.206Z,99780.34
2019-04-01T17:31:38.757Z,99782.78
2019-04-01T17:36:57.325Z,99777.87
2019-04-01T17:42:16.991Z,99777.38
2019-04-01T17:47:35.831Z,99770.70
2019-04-01T17:52:54.567Z,99764.29
2019-04-01T17:58:15.285Z,99757.45
2019-04-01T18:03:34.223Z,99755.81
2019-04-01T18:08:53.386Z,99755.53
2019-04-01T18:14:11.953Z,99752.52
2019-04-01T18:19:30.519Z,99755.53
2019-04-01T18:24:49.188Z,99746.09
2019-04-01T18:30:09.322Z,99740.34
2019-04-01T18:35:27.966Z,99737.91
2019-04-01T18:40:46.562Z,99728.33
2019-04-01T18:46:05.194Z,99742.97
2019-04-01T18:51:23.825Z,99732.84
2019-04-01T18:56:42.465Z,99729.22
2019-04-01T19:02:01.510Z,99730.12
2019-04-01T19:07:21.900Z,99726.52
2019-04-01T19:12:40.357Z,99722.94
2019-04-01T19:17:58.983Z,99720.38
2019-04-01T19:23:17.635Z,99719.84
2019-04-01T19:28:36.252Z,99708.72
2019-04-01T19:33:56.644Z,99712.74
2019-04-01T19:39:15.204Z,99709.98
2019-04-01T19:44:33.822Z,99706.91
2019-04-01T19:49:52.684Z,99708.00
2019-04-01T19:55:11.313Z,99713.83
2019-04-01T20:00:30.768Z,99709.66
2019-04-01T20:05:50.080Z,99708.72
2019-04-01T20:11:09.565Z,99701.11
2019-04-01T20:16:28.545Z,99698.98
2019-04-01T20:21:47.593Z,99688.94
2019-04-01T20:27:06.284Z,99685.44
2019-04-01T20:32:24.833Z,99677.66
2019-04-01T20:37:43.577Z,99671.09
2019-04-01T20:43:02.282Z,99668.08
2019-04-01T20:48:20.953Z,99655.55
2019-04-01T20:53:39.519Z,99646.73
2019-04-01T20:58:58.087Z,99647.56
2019-04-01T21:04:17.006Z,99637.78
2019-04-01T21:09:35.502Z,99630.59
2019-04-01T21:14:56.080Z,99625.14
2019-04-01T21:20:15.110Z,99618.77
2019-04-01T21:25:33.670Z,99615.38
2019-04-01T21:30:52.294Z,99607.25
2019-04-01T21:36:10.922Z,99604.80
2019-04-01T21:41:29.481Z,99606.64
2019-04-01T21:46:48.104Z,99602.27
2019-04-01T21:52:06.720Z,99602.94
2019-04-01T21:57:25.278Z,99588.35
2019-04-01T22:02:44.483Z,99587.03
2019-04-01T22:08:03.025Z,99580.27
2019-04-01T22:13:21.738Z,99573.27
2019-04-01T22:18:40.218Z,99569.27
2019-04-01T22:23:59.124Z,99569.42
2019-04-01T22:29:17.712Z,99556.94
2019-04-01T22:34:36.196Z,99553.80
2019-04-01T22:39:54.744Z,99552.91
2019-04-01T22:45:13.449Z,99546.36
2019-04-01T22:50:32.086Z,99537.59
2019-04-01T22:55:50.740Z,99531.48
2019-04-01T23:01:09.299Z,99525.78
2019-04-01T23:06:27.799Z,99521.51
2019-04-01T23:11:46.288Z,99516.30
2019-04-01T23:17:04.900Z,99509.38
2019-04-01T23:22:23.483Z,99509.48
2019-04-01T23:27:42.046Z,99504.39
2019-04-01T23:33:00.767Z,99498.62
2019-04-01T23:38:19.295Z,99490.81
2019-04-01T23:43:37.990Z,99491.82
2019-04-01T23:48:56.608Z,99481.50
2019-04-01T23:54:15.144Z,99484.77
2019-04-01T23:59:33.688Z,99473.98
